ROT647M LROP-LRCL
Flight info
| Callsign | ROT647M |
|---|---|
| Flight time | 0h 36m |
| Altitude | 24000 |
| Route | BUKEL DCT EDETA |
| Aircraft | A320/M-SDE3FGHIRWY/LB1 |
Departure
| Time | 2026-04-21 17:24 |
|---|---|
| Airport | Bucharest Henri Coandă International Airport (LROP) |
Arrival
| Time | 2026-04-21 18:00 |
|---|---|
| Airport | Avram Iancu Cluj International Airport (LRCL) |
| Time | Latitude | Longitude | Altitude | Speed | Heading |
|---|---|---|---|---|---|
| 2026-04-21 17:01 | 44.57255 | 26.07931 | 322 ft | 0 kts | 354° |
| 2026-04-21 17:14 | 44.57253 | 26.07931 | 323 ft | 2 kts | 354° |
| 2026-04-21 17:14 | 44.57227 | 26.07935 | 321 ft | 4 kts | 356° |
| 2026-04-21 17:14 | 44.57203 | 26.07930 | 321 ft | 4 kts | 35° |
| 2026-04-21 17:15 | 44.57189 | 26.07906 | 321 ft | 2 kts | 82° |
| 2026-04-21 17:15 | 44.57189 | 26.07904 | 321 ft | 1 kts | 83° |
| 2026-04-21 17:17 | 44.57190 | 26.07918 | 321 ft | 6 kts | 83° |
| 2026-04-21 17:17 | 44.57195 | 26.07972 | 320 ft | 5 kts | 84° |
| 2026-04-21 17:17 | 44.57203 | 26.08082 | 323 ft | 15 kts | 84° |
| 2026-04-21 17:18 | 44.57213 | 26.08224 | 323 ft | 14 kts | 84° |
| 2026-04-21 17:18 | 44.57224 | 26.08362 | 323 ft | 13 kts | 84° |
| 2026-04-21 17:18 | 44.57234 | 26.08477 | 323 ft | 9 kts | 76° |
| 2026-04-21 17:18 | 44.57289 | 26.08500 | 323 ft | 10 kts | 349° |
| 2026-04-21 17:19 | 44.57361 | 26.08486 | 321 ft | 11 kts | 356° |
| 2026-04-21 17:19 | 44.57441 | 26.08477 | 323 ft | 13 kts | 354° |
| 2026-04-21 17:19 | 44.57509 | 26.08466 | 323 ft | 4 kts | 352° |
| 2026-04-21 17:19 | 44.57535 | 26.08461 | 322 ft | 4 kts | 353° |
| 2026-04-21 17:20 | 44.57551 | 26.08459 | 323 ft | 0 kts | 354° |
| 2026-04-21 17:22 | 44.57570 | 26.08456 | 323 ft | 8 kts | 354° |
| 2026-04-21 17:22 | 44.57647 | 26.08444 | 323 ft | 6 kts | 355° |
| 2026-04-21 17:22 | 44.57665 | 26.08473 | 323 ft | 3 kts | 74° |
| 2026-04-21 17:23 | 44.57668 | 26.08495 | 324 ft | 0 kts | 83° |
| 2026-04-21 17:23 | 44.57673 | 26.08573 | 324 ft | 36 kts | 84° |
| 2026-04-21 17:23 | 44.57730 | 26.09306 | 320 ft | 115 kts | 84° |
| 2026-04-21 17:24 | 44.57840 | 26.10743 | 410 ft | 167 kts | 84° |
| 2026-04-21 17:24 | 44.57968 | 26.12318 | 1398 ft | 160 kts | 83° |
| 2026-04-21 17:24 | 44.58084 | 26.13826 | 2295 ft | 156 kts | 84° |
| 2026-04-21 17:24 | 44.58210 | 26.15405 | 2955 ft | 168 kts | 84° |
| 2026-04-21 17:25 | 44.58335 | 26.17062 | 3695 ft | 173 kts | 85° |
| 2026-04-21 17:25 | 44.58471 | 26.18793 | 4313 ft | 188 kts | 78° |
| 2026-04-21 17:25 | 44.59108 | 26.20485 | 4753 ft | 210 kts | 38° |
| 2026-04-21 17:25 | 44.60497 | 26.21266 | 5252 ft | 229 kts | 358° |
| 2026-04-21 17:26 | 44.62062 | 26.20599 | 5828 ft | 250 kts | 328° |
| 2026-04-21 17:26 | 44.63534 | 26.19181 | 6736 ft | 259 kts | 320° |
| 2026-04-21 17:26 | 44.64936 | 26.17565 | 7802 ft | 262 kts | 317° |
| 2026-04-21 17:26 | 44.66329 | 26.15893 | 8915 ft | 265 kts | 317° |
| 2026-04-21 17:27 | 44.67743 | 26.14214 | 10012 ft | 268 kts | 318° |
| 2026-04-21 17:27 | 44.69225 | 26.12491 | 10670 ft | 287 kts | 319° |
| 2026-04-21 17:27 | 44.70839 | 26.10650 | 11163 ft | 308 kts | 320° |
| 2026-04-21 17:27 | 44.72542 | 26.08750 | 11985 ft | 316 kts | 321° |
| 2026-04-21 17:28 | 44.74316 | 26.06878 | 12926 ft | 321 kts | 322° |
| 2026-04-21 17:28 | 44.74498 | 26.06690 | 13020 ft | 322 kts | 322° |
| 2026-04-21 17:28 | 44.76059 | 26.05105 | 13817 ft | 325 kts | 323° |
| 2026-04-21 17:29 | 44.77975 | 26.03180 | 14667 ft | 330 kts | 322° |
| 2026-04-21 17:29 | 44.79854 | 26.01291 | 15497 ft | 333 kts | 322° |
| 2026-04-21 17:29 | 44.81745 | 25.99378 | 16334 ft | 337 kts | 321° |
| 2026-04-21 17:29 | 44.83653 | 25.97435 | 17164 ft | 340 kts | 321° |
| 2026-04-21 17:30 | 44.85577 | 25.95467 | 17990 ft | 343 kts | 321° |
| 2026-04-21 17:30 | 44.87524 | 25.93474 | 18680 ft | 349 kts | 320° |
| 2026-04-21 17:30 | 44.89491 | 25.91454 | 19445 ft | 350 kts | 320° |
| 2026-04-21 17:30 | 44.91455 | 25.89437 | 20286 ft | 349 kts | 319° |
| 2026-04-21 17:31 | 44.93408 | 25.87427 | 21168 ft | 347 kts | 318° |
| 2026-04-21 17:31 | 44.95358 | 25.85415 | 22050 ft | 346 kts | 317° |
| 2026-04-21 17:31 | 44.97289 | 25.83422 | 22921 ft | 344 kts | 316° |
| 2026-04-21 17:31 | 44.99214 | 25.81436 | 23715 ft | 343 kts | 316° |
| 2026-04-21 17:32 | 45.00500 | 25.80112 | 23921 ft | 342 kts | 316° |
| 2026-04-21 17:32 | 45.03073 | 25.77454 | 24074 ft | 345 kts | 316° |
| 2026-04-21 17:32 | 45.05014 | 25.75439 | 24076 ft | 346 kts | 316° |
| 2026-04-21 17:32 | 45.06957 | 25.73421 | 24080 ft | 347 kts | 317° |
| 2026-04-21 17:33 | 45.08897 | 25.71372 | 24077 ft | 348 kts | 316° |
| 2026-04-21 17:33 | 45.10803 | 25.69268 | 24077 ft | 348 kts | 316° |
| 2026-04-21 17:33 | 45.12759 | 25.67214 | 24077 ft | 350 kts | 317° |
| 2026-04-21 17:33 | 45.14762 | 25.65232 | 24076 ft | 351 kts | 319° |
| 2026-04-21 17:34 | 45.16785 | 25.63289 | 24080 ft | 351 kts | 319° |
| 2026-04-21 17:34 | 45.18818 | 25.61350 | 24079 ft | 351 kts | 319° |
| 2026-04-21 17:34 | 45.20839 | 25.59411 | 24077 ft | 351 kts | 319° |
| 2026-04-21 17:34 | 45.22857 | 25.57455 | 24077 ft | 351 kts | 319° |
| 2026-04-21 17:35 | 45.24866 | 25.55494 | 24073 ft | 350 kts | 318° |
| 2026-04-21 17:35 | 45.26873 | 25.53520 | 24072 ft | 351 kts | 318° |
| 2026-04-21 17:35 | 45.28872 | 25.51543 | 24067 ft | 351 kts | 319° |
| 2026-04-21 17:35 | 45.30873 | 25.49558 | 24074 ft | 352 kts | 319° |
| 2026-04-21 17:36 | 45.32886 | 25.47564 | 24059 ft | 352 kts | 319° |
| 2026-04-21 17:36 | 45.34895 | 25.45575 | 24054 ft | 354 kts | 319° |
| 2026-04-21 17:36 | 45.36914 | 25.43576 | 24051 ft | 354 kts | 320° |
| 2026-04-21 17:36 | 45.38938 | 25.41571 | 24046 ft | 354 kts | 319° |
| 2026-04-21 17:37 | 45.40971 | 25.39558 | 24044 ft | 356 kts | 320° |
| 2026-04-21 17:37 | 45.43003 | 25.37545 | 24042 ft | 355 kts | 320° |
| 2026-04-21 17:37 | 45.44343 | 25.36216 | 24041 ft | 355 kts | 320° |
| 2026-04-21 17:37 | 45.47054 | 25.33524 | 24044 ft | 356 kts | 319° |
| 2026-04-21 17:38 | 45.49085 | 25.31501 | 24045 ft | 356 kts | 319° |
| 2026-04-21 17:38 | 45.51112 | 25.29480 | 24043 ft | 356 kts | 320° |
| 2026-04-21 17:38 | 45.53118 | 25.27481 | 24037 ft | 356 kts | 320° |
| 2026-04-21 17:38 | 45.55150 | 25.25456 | 24036 ft | 357 kts | 320° |
| 2026-04-21 17:39 | 45.57182 | 25.23430 | 24037 ft | 357 kts | 320° |
| 2026-04-21 17:39 | 45.59223 | 25.21392 | 24047 ft | 358 kts | 321° |
| 2026-04-21 17:39 | 45.61265 | 25.19350 | 24038 ft | 359 kts | 321° |
| 2026-04-21 17:39 | 45.63316 | 25.17300 | 24032 ft | 360 kts | 322° |
| 2026-04-21 17:40 | 45.65362 | 25.15254 | 24032 ft | 360 kts | 321° |
| 2026-04-21 17:40 | 45.67424 | 25.13186 | 24028 ft | 361 kts | 322° |
| 2026-04-21 17:40 | 45.69479 | 25.11120 | 24030 ft | 362 kts | 321° |
| 2026-04-21 17:40 | 45.71538 | 25.09050 | 24033 ft | 362 kts | 321° |
| 2026-04-21 17:41 | 45.73599 | 25.06979 | 24032 ft | 362 kts | 322° |
| 2026-04-21 17:41 | 45.75663 | 25.04904 | 24022 ft | 363 kts | 322° |
| 2026-04-21 17:41 | 45.77728 | 25.02825 | 24024 ft | 363 kts | 322° |
| 2026-04-21 17:41 | 45.79789 | 25.00746 | 24026 ft | 363 kts | 322° |
| 2026-04-21 17:42 | 45.81861 | 24.98656 | 24027 ft | 363 kts | 322° |
| 2026-04-21 17:42 | 45.83924 | 24.96571 | 24029 ft | 363 kts | 322° |
| 2026-04-21 17:42 | 45.85984 | 24.94482 | 24040 ft | 363 kts | 322° |
| 2026-04-21 17:42 | 45.88049 | 24.92380 | 24035 ft | 364 kts | 322° |
| 2026-04-21 17:43 | 45.90111 | 24.90282 | 24036 ft | 364 kts | 322° |
| 2026-04-21 17:43 | 45.92177 | 24.88186 | 24028 ft | 364 kts | 322° |
| 2026-04-21 17:43 | 45.94257 | 24.86076 | 24031 ft | 365 kts | 322° |
| 2026-04-21 17:43 | 45.96334 | 24.83966 | 24016 ft | 365 kts | 323° |
| 2026-04-21 17:44 | 45.98397 | 24.81869 | 23826 ft | 361 kts | 323° |
| 2026-04-21 17:44 | 45.99746 | 24.80495 | 23670 ft | 359 kts | 323° |
| 2026-04-21 17:44 | 46.01776 | 24.78425 | 23396 ft | 357 kts | 323° |
| 2026-04-21 17:44 | 46.03804 | 24.76355 | 23106 ft | 356 kts | 323° |
| 2026-04-21 17:45 | 46.05818 | 24.74297 | 22825 ft | 355 kts | 323° |
| 2026-04-21 17:45 | 46.07826 | 24.72242 | 22543 ft | 353 kts | 323° |
| 2026-04-21 17:45 | 46.09824 | 24.70195 | 22257 ft | 352 kts | 323° |
| 2026-04-21 17:45 | 46.11817 | 24.68157 | 21987 ft | 351 kts | 323° |
| 2026-04-21 17:46 | 46.13789 | 24.66142 | 21598 ft | 344 kts | 323° |
| 2026-04-21 17:46 | 46.15724 | 24.64155 | 21124 ft | 339 kts | 323° |
| 2026-04-21 17:46 | 46.17639 | 24.62187 | 20665 ft | 336 kts | 323° |
| 2026-04-21 17:46 | 46.19532 | 24.60242 | 20196 ft | 332 kts | 323° |
| 2026-04-21 17:47 | 46.21406 | 24.58312 | 19727 ft | 330 kts | 323° |
| 2026-04-21 17:47 | 46.23267 | 24.56394 | 19262 ft | 328 kts | 323° |
| 2026-04-21 17:47 | 46.25117 | 24.54486 | 18791 ft | 326 kts | 323° |
| 2026-04-21 17:47 | 46.26957 | 24.52584 | 18323 ft | 325 kts | 323° |
| 2026-04-21 17:48 | 46.28795 | 24.50684 | 17810 ft | 323 kts | 323° |
| 2026-04-21 17:48 | 46.30618 | 24.48801 | 17352 ft | 320 kts | 323° |
| 2026-04-21 17:48 | 46.32424 | 24.46936 | 16901 ft | 318 kts | 323° |
| 2026-04-21 17:48 | 46.34214 | 24.45089 | 16455 ft | 315 kts | 323° |
| 2026-04-21 17:49 | 46.35997 | 24.43242 | 16012 ft | 314 kts | 323° |
| 2026-04-21 17:49 | 46.37767 | 24.41404 | 15567 ft | 312 kts | 323° |
| 2026-04-21 17:49 | 46.39528 | 24.39574 | 15116 ft | 311 kts | 323° |
| 2026-04-21 17:49 | 46.41287 | 24.37749 | 14663 ft | 310 kts | 323° |
| 2026-04-21 17:50 | 46.43043 | 24.35926 | 14235 ft | 309 kts | 323° |
| 2026-04-21 17:50 | 46.44789 | 24.34112 | 13787 ft | 309 kts | 323° |
| 2026-04-21 17:50 | 46.46532 | 24.32292 | 13315 ft | 307 kts | 323° |
| 2026-04-21 17:50 | 46.48258 | 24.30490 | 12851 ft | 305 kts | 323° |
| 2026-04-21 17:51 | 46.49977 | 24.28692 | 12403 ft | 303 kts | 323° |
| 2026-04-21 17:51 | 46.51681 | 24.26913 | 11960 ft | 301 kts | 323° |
| 2026-04-21 17:51 | 46.53373 | 24.25146 | 11515 ft | 299 kts | 323° |
| 2026-04-21 17:51 | 46.55051 | 24.23394 | 11055 ft | 297 kts | 323° |
| 2026-04-21 17:52 | 46.56727 | 24.21647 | 10600 ft | 295 kts | 323° |
| 2026-04-21 17:52 | 46.58383 | 24.19918 | 10281 ft | 289 kts | 323° |
| 2026-04-21 17:52 | 46.59984 | 24.18245 | 10092 ft | 279 kts | 323° |
| 2026-04-21 17:52 | 46.61539 | 24.16613 | 9874 ft | 273 kts | 323° |
| 2026-04-21 17:53 | 46.63078 | 24.14999 | 9745 ft | 273 kts | 323° |
| 2026-04-21 17:53 | 46.64624 | 24.13375 | 9349 ft | 274 kts | 323° |
| 2026-04-21 17:53 | 46.66167 | 24.11755 | 8861 ft | 273 kts | 323° |
| 2026-04-21 17:53 | 46.67706 | 24.10139 | 8378 ft | 273 kts | 323° |
| 2026-04-21 17:54 | 46.69231 | 24.08536 | 7926 ft | 271 kts | 324° |
| 2026-04-21 17:54 | 46.70762 | 24.06927 | 7496 ft | 269 kts | 324° |
| 2026-04-21 17:54 | 46.72257 | 24.05352 | 6912 ft | 263 kts | 324° |
| 2026-04-21 17:54 | 46.73731 | 24.03793 | 6196 ft | 261 kts | 325° |
| 2026-04-21 17:55 | 46.75195 | 24.02242 | 5434 ft | 259 kts | 325° |
| 2026-04-21 17:55 | 46.76650 | 24.00704 | 4686 ft | 258 kts | 325° |
| 2026-04-21 17:55 | 46.78098 | 23.99175 | 4315 ft | 255 kts | 326° |
| 2026-04-21 17:55 | 46.79497 | 23.97698 | 4180 ft | 242 kts | 325° |
| 2026-04-21 17:56 | 46.80833 | 23.96282 | 4068 ft | 235 kts | 325° |
| 2026-04-21 17:56 | 46.82106 | 23.94796 | 4013 ft | 235 kts | 314° |
| 2026-04-21 17:56 | 46.82995 | 23.92850 | 4015 ft | 229 kts | 295° |
| 2026-04-21 17:56 | 46.83372 | 23.90591 | 3971 ft | 230 kts | 275° |
| 2026-04-21 17:57 | 46.83197 | 23.88300 | 3740 ft | 227 kts | 255° |
| 2026-04-21 17:57 | 46.82706 | 23.86116 | 3454 ft | 225 kts | 254° |
| 2026-04-21 17:57 | 46.82229 | 23.83981 | 3149 ft | 215 kts | 254° |
| 2026-04-21 17:57 | 46.81780 | 23.81972 | 2857 ft | 202 kts | 255° |
| 2026-04-21 17:58 | 46.81363 | 23.80108 | 2619 ft | 184 kts | 255° |
| 2026-04-21 17:58 | 46.80983 | 23.78413 | 2355 ft | 166 kts | 255° |
| 2026-04-21 17:58 | 46.80643 | 23.76895 | 2123 ft | 147 kts | 254° |
| 2026-04-21 17:58 | 46.80340 | 23.75543 | 1901 ft | 134 kts | 256° |
| 2026-04-21 17:59 | 46.80059 | 23.74288 | 1713 ft | 129 kts | 254° |
| 2026-04-21 17:59 | 46.79783 | 23.73053 | 1530 ft | 127 kts | 254° |
| 2026-04-21 17:59 | 46.79505 | 23.71829 | 1399 ft | 126 kts | 255° |
| 2026-04-21 17:59 | 46.79228 | 23.70601 | 1224 ft | 128 kts | 253° |
| 2026-04-21 18:00 | 46.78959 | 23.69373 | 1052 ft | 125 kts | 256° |
| 2026-04-21 18:00 | 46.78734 | 23.68357 | 1043 ft | 82 kts | 251° |
| 2026-04-21 18:00 | 46.78599 | 23.67756 | 1043 ft | 53 kts | 251° |
| 2026-04-21 18:00 | 46.78517 | 23.67396 | 1043 ft | 25 kts | 251° |
| 2026-04-21 18:01 | 46.78464 | 23.67200 | 1043 ft | 15 kts | 227° |
| 2026-04-21 18:01 | 46.78392 | 23.67209 | 1043 ft | 10 kts | 143° |
| 2026-04-21 18:01 | 46.78343 | 23.67304 | 1043 ft | 16 kts | 99° |
| 2026-04-21 18:01 | 46.78364 | 23.67514 | 1043 ft | 23 kts | 78° |
| 2026-04-21 18:02 | 46.78416 | 23.67750 | 1043 ft | 26 kts | 72° |
| 2026-04-21 18:02 | 46.78475 | 23.68015 | 1043 ft | 29 kts | 72° |
| 2026-04-21 18:02 | 46.78531 | 23.68259 | 1043 ft | 24 kts | 73° |
| 2026-04-21 18:02 | 46.78587 | 23.68508 | 1043 ft | 26 kts | 71° |
| 2026-04-21 18:03 | 46.78638 | 23.68734 | 1043 ft | 23 kts | 71° |
| 2026-04-21 18:03 | 46.78631 | 23.68857 | 1043 ft | 10 kts | 155° |
| 2026-04-21 18:03 | 46.78569 | 23.68890 | 1043 ft | 9 kts | 162° |
| 2026-04-21 18:03 | 46.78508 | 23.68919 | 1043 ft | 9 kts | 161° |
| 2026-04-21 18:04 | 46.78448 | 23.68940 | 1043 ft | 9 kts | 181° |
| 2026-04-21 18:04 | 46.78422 | 23.68892 | 1043 ft | 6 kts | 266° |
| 2026-04-21 18:04 | 46.78420 | 23.68845 | 1043 ft | 2 kts | 266° |
| 2026-04-21 18:04 | 46.78417 | 23.68822 | 1043 ft | 3 kts | 249° |
| 2026-04-21 18:05 | 46.78392 | 23.68813 | 1043 ft | 4 kts | 174° |
| 2026-04-21 18:05 | 46.78370 | 23.68815 | 1043 ft | 2 kts | 175° |
| 2026-04-21 18:05 | 46.78361 | 23.68817 | 1043 ft | 0 kts | 175° |